createdAt,value
2018-08-04T00:01:39.728Z,10.30
2018-08-04T00:04:06.664Z,10.80
2018-08-04T00:06:35.013Z,10.90
2018-08-04T00:09:01.899Z,11.33
2018-08-04T00:11:28.829Z,10.78
2018-08-04T00:13:55.725Z,11.13
2018-08-04T00:16:22.636Z,12.60
2018-08-04T00:18:49.576Z,12.03
2018-08-04T00:21:16.467Z,11.57
2018-08-04T00:23:43.431Z,10.70
2018-08-04T00:26:10.320Z,10.63
2018-08-04T00:28:37.936Z,10.87
2018-08-04T00:31:04.831Z,11.93
2018-08-04T00:33:31.712Z,10.68
2018-08-04T00:35:58.651Z,11.07
2018-08-04T00:38:25.532Z,11.80
2018-08-04T00:40:52.436Z,11.33
2018-08-04T00:43:19.324Z,11.03
2018-08-04T00:45:46.224Z,12.83
2018-08-04T00:48:13.113Z,15.83
2018-08-04T00:50:40.004Z,12.60
2018-08-04T00:53:06.897Z,10.30
2018-08-04T00:55:33.808Z,12.27
2018-08-04T00:58:00.732Z,12.00
2018-08-04T01:00:27.611Z,16.83
2018-08-04T01:02:55.528Z,13.32
2018-08-04T01:05:22.411Z,12.30
2018-08-04T01:07:49.310Z,14.50
2018-08-04T01:10:16.196Z,11.93
2018-08-04T01:12:43.084Z,12.00
2018-08-04T01:15:09.967Z,11.30
2018-08-04T01:17:36.857Z,13.33
2018-08-04T01:20:04.596Z,12.80
2018-08-04T01:22:32.080Z,12.87
2018-08-04T01:25:01.992Z,13.40
2018-08-04T01:27:28.916Z,12.30
2018-08-04T01:29:55.797Z,11.67
2018-08-04T01:32:22.726Z,13.40
2018-08-04T01:34:49.614Z,13.13
2018-08-04T01:37:16.812Z,15.60
2018-08-04T01:39:46.736Z,13.57
2018-08-04T01:42:13.635Z,12.10
2018-08-04T01:44:40.547Z,13.03
2018-08-04T01:47:07.430Z,14.27
2018-08-04T01:49:34.487Z,11.50
2018-08-04T01:52:01.404Z,11.90
2018-08-04T01:54:30.312Z,11.63
2018-08-04T01:56:57.241Z,12.93
2018-08-04T01:59:24.124Z,10.87
2018-08-04T02:01:51.016Z,11.87
2018-08-04T02:04:17.912Z,10.67
2018-08-04T02:06:44.799Z,11.57
2018-08-04T02:09:11.680Z,10.90
2018-08-04T02:11:38.614Z,11.40
2018-08-04T02:14:05.531Z,10.90
2018-08-04T02:16:32.413Z,13.30
2018-08-04T02:18:59.308Z,13.08
2018-08-04T02:21:26.201Z,15.00
2018-08-04T02:23:53.096Z,11.43
2018-08-04T02:26:20.005Z,15.20
2018-08-04T02:28:46.964Z,12.60
2018-08-04T02:31:13.848Z,11.80
2018-08-04T02:33:40.749Z,17.80
2018-08-04T02:36:07.672Z,12.27
2018-08-04T02:38:34.582Z,11.40
2018-08-04T02:41:01.465Z,11.37
2018-08-04T02:43:28.344Z,11.97
2018-08-04T02:45:55.239Z,10.70
2018-08-04T02:48:22.120Z,13.13
2018-08-04T02:50:49.029Z,12.60
2018-08-04T02:53:15.908Z,11.73
2018-08-04T02:55:42.799Z,11.40
2018-08-04T02:58:09.693Z,14.40
2018-08-04T03:00:36.592Z,11.80
2018-08-04T03:03:03.471Z,14.03
2018-08-04T03:05:30.361Z,12.93
2018-08-04T03:07:57.241Z,12.87
2018-08-04T03:10:24.129Z,12.50
2018-08-04T03:12:51.080Z,13.53
2018-08-04T03:15:17.959Z,14.83
2018-08-04T03:17:44.827Z,12.33
2018-08-04T03:20:11.812Z,11.90
2018-08-04T03:22:38.689Z,16.97
2018-08-04T03:25:05.765Z,11.80
2018-08-04T03:27:32.696Z,13.50
2018-08-04T03:29:59.592Z,13.60
2018-08-04T03:32:26.482Z,14.07
2018-08-04T03:34:53.383Z,15.63
2018-08-04T03:37:20.288Z,14.80
2018-08-04T03:39:47.206Z,15.00
2018-08-04T03:42:14.080Z,14.90
2018-08-04T03:44:41.328Z,13.00
2018-08-04T03:47:08.224Z,13.20
2018-08-04T03:49:35.133Z,13.88
2018-08-04T03:52:01.989Z,14.83
2018-08-04T03:54:28.924Z,13.50
2018-08-04T03:56:55.868Z,14.70
2018-08-04T03:59:24.082Z,19.30
2018-08-04T04:01:51.024Z,15.73
2018-08-04T04:04:17.964Z,14.87
2018-08-04T04:06:46.495Z,15.43
2018-08-04T04:09:13.416Z,13.83
2018-08-04T04:11:40.313Z,14.37
2018-08-04T04:14:07.229Z,14.83
2018-08-04T04:16:37.108Z,13.67
2018-08-04T04:19:04.009Z,13.98
2018-08-04T04:21:30.937Z,12.10
2018-08-04T04:23:58.605Z,12.27
2018-08-04T04:26:25.539Z,13.60
2018-08-04T04:28:52.528Z,12.03
2018-08-04T04:31:21.101Z,12.27
2018-08-04T04:33:48.076Z,12.13
2018-08-04T04:36:15.008Z,14.10
2018-08-04T04:38:42.582Z,14.33
2018-08-04T04:41:10.055Z,11.90
2018-08-04T04:43:38.640Z,11.63
2018-08-04T04:46:05.632Z,13.33
2018-08-04T04:48:42.311Z,15.20
2018-08-04T04:51:12.280Z,11.37
2018-08-04T04:53:40.302Z,12.53
2018-08-04T04:56:07.230Z,10.83
2018-08-04T04:58:37.211Z,12.23
2018-08-04T05:01:04.384Z,14.87
2018-08-04T05:03:34.399Z,11.97
2018-08-04T05:06:01.723Z,15.20
2018-08-04T05:08:32.720Z,12.40
2018-08-04T05:10:59.650Z,11.00
2018-08-04T05:13:28.681Z,11.20
2018-08-04T05:15:55.657Z,11.73
2018-08-04T05:18:23.083Z,11.03
2018-08-04T05:20:57.823Z,11.17
2018-08-04T05:23:24.783Z,17.70
2018-08-04T05:25:52.619Z,12.20
2018-08-04T05:28:22.595Z,12.17
2018-08-04T05:30:52.103Z,9.73
2018-08-04T05:33:33.115Z,14.13
2018-08-04T05:36:00.640Z,11.37
2018-08-04T05:38:31.700Z,10.63
2018-08-04T05:40:59.619Z,10.90
2018-08-04T05:43:33.327Z,11.87
2018-08-04T05:46:01.090Z,10.73
2018-08-04T05:48:28.070Z,10.73
2018-08-04T05:50:55.010Z,10.10
2018-08-04T05:53:23.297Z,10.30
2018-08-04T05:55:50.233Z,11.50
2018-08-04T05:58:18.219Z,9.93
2018-08-04T06:00:45.219Z,15.23
2018-08-04T06:03:12.186Z,12.20
2018-08-04T06:05:39.636Z,12.60
2018-08-04T06:08:06.682Z,11.90
2018-08-04T06:10:35.171Z,13.23
2018-08-04T06:13:03.676Z,15.10
2018-08-04T06:15:31.658Z,11.43
2018-08-04T06:18:01.564Z,21.57
2018-08-04T06:20:28.531Z,9.27
2018-08-04T06:22:56.514Z,9.80
2018-08-04T06:25:27.480Z,10.70
2018-08-04T06:27:55.143Z,9.10
2018-08-04T06:30:22.072Z,9.20
2018-08-04T06:32:52.338Z,10.00
2018-08-04T06:35:20.184Z,10.50
2018-08-04T06:37:47.183Z,13.10
2018-08-04T06:40:15.491Z,10.67
2018-08-04T06:42:43.115Z,9.30
2018-08-04T06:45:13.552Z,9.30
2018-08-04T06:47:47.889Z,8.90
2018-08-04T06:50:17.886Z,10.97
2018-08-04T06:52:44.913Z,9.23
2018-08-04T06:55:11.835Z,9.40
2018-08-04T06:57:38.828Z,10.10
2018-08-04T07:00:06.119Z,13.50
2018-08-04T07:02:33.103Z,9.30
2018-08-04T07:05:00.398Z,11.97
2018-08-04T07:07:28.176Z,11.17
2018-08-04T07:10:01.367Z,13.77
2018-08-04T07:12:28.349Z,9.10
2018-08-04T07:14:55.326Z,10.40
2018-08-04T07:17:22.357Z,12.67
2018-08-04T07:19:51.353Z,10.20
2018-08-04T07:22:18.344Z,9.23
2018-08-04T07:24:45.275Z,11.20
2018-08-04T07:27:13.270Z,10.90
2018-08-04T07:29:40.412Z,11.63
2018-08-04T07:32:07.376Z,9.53
2018-08-04T07:34:37.355Z,10.30
2018-08-04T07:37:07.415Z,9.40
2018-08-04T07:39:34.424Z,14.43
2018-08-04T07:42:02.472Z,12.00
2018-08-04T07:44:29.485Z,13.93
2018-08-04T07:46:56.492Z,11.33
2018-08-04T07:49:23.449Z,14.70
2018-08-04T07:51:50.407Z,10.53
2018-08-04T07:54:20.262Z,10.30
2018-08-04T07:56:49.249Z,15.40
2018-08-04T07:59:19.999Z,10.30
2018-08-04T08:01:48.811Z,10.70
2018-08-04T08:04:16.808Z,9.53
2018-08-04T08:06:43.900Z,15.03
2018-08-04T08:09:10.904Z,11.70
2018-08-04T08:11:37.961Z,10.00
2018-08-04T08:14:05.847Z,9.27
2018-08-04T08:16:39.783Z,11.77
2018-08-04T08:19:06.877Z,11.90
2018-08-04T08:21:33.884Z,12.70
2018-08-04T08:24:00.819Z,12.47
2018-08-04T08:26:27.781Z,11.93
2018-08-04T08:28:56.785Z,13.03
2018-08-04T08:31:23.768Z,11.27
2018-08-04T08:33:52.240Z,11.07
2018-08-04T08:36:20.229Z,14.27
2018-08-04T08:38:49.258Z,14.43
2018-08-04T08:41:16.420Z,10.93
2018-08-04T08:43:45.503Z,10.40
2018-08-04T08:46:12.516Z,11.30
2018-08-04T08:48:42.487Z,12.87
2018-08-04T08:51:12.532Z,10.83
2018-08-04T08:53:42.595Z,11.30
2018-08-04T08:56:11.296Z,8.83
2018-08-04T08:58:45.669Z,11.03
2018-08-04T09:01:14.721Z,14.17
2018-08-04T09:03:44.572Z,10.27
2018-08-04T09:06:15.251Z,10.57
2018-08-04T09:08:43.792Z,10.37
2018-08-04T09:11:12.755Z,10.90
2018-08-04T09:13:40.730Z,15.40
2018-08-04T09:16:07.686Z,9.93
2018-08-04T09:18:35.695Z,10.10
2018-08-04T09:21:05.745Z,11.87
2018-08-04T09:23:34.798Z,11.87
2018-08-04T09:26:04.744Z,11.00
2018-08-04T09:28:37.743Z,12.00
2018-08-04T09:31:04.928Z,14.20
2018-08-04T09:33:33.815Z,11.90
2018-08-04T09:36:00.760Z,10.80
2018-08-04T09:38:27.703Z,14.50
2018-08-04T09:40:55.730Z,11.27
2018-08-04T09:43:22.679Z,10.57
2018-08-04T09:45:50.375Z,11.60
2018-08-04T09:48:17.395Z,10.33
2018-08-04T09:50:53.107Z,9.63
2018-08-04T09:53:21.178Z,11.63
2018-08-04T09:55:48.191Z,14.60
2018-08-04T09:58:15.766Z,14.47
2018-08-04T10:00:48.523Z,16.83
2018-08-04T10:03:15.555Z,12.50
2018-08-04T10:05:42.608Z,16.37
2018-08-04T10:08:09.539Z,12.57
2018-08-04T10:10:36.515Z,10.40
2018-08-04T10:13:03.415Z,10.43
2018-08-04T10:15:30.479Z,9.00
2018-08-04T10:17:58.332Z,13.17
2018-08-04T10:20:26.459Z,12.80
2018-08-04T10:22:53.504Z,11.90
2018-08-04T10:25:25.751Z,11.17
2018-08-04T10:27:53.872Z,10.60
2018-08-04T10:30:20.905Z,9.70
2018-08-04T10:32:47.907Z,11.33
2018-08-04T10:35:15.800Z,10.17
2018-08-04T10:37:45.724Z,9.17
2018-08-04T10:40:16.266Z,11.13
2018-08-04T10:42:45.264Z,9.13
2018-08-04T10:45:13.260Z,10.37
2018-08-04T10:47:51.480Z,18.10
2018-08-04T10:50:30.513Z,11.68
2018-08-04T10:52:57.496Z,10.47
2018-08-04T10:55:30.419Z,12.27
2018-08-04T10:57:57.447Z,11.03
2018-08-04T11:00:24.410Z,11.70
2018-08-04T11:02:51.395Z,8.53
2018-08-04T11:05:24.567Z,8.33
2018-08-04T11:07:52.353Z,8.10
2018-08-04T11:10:19.812Z,10.80
2018-08-04T11:12:50.268Z,9.00
2018-08-04T11:15:23.368Z,12.50
2018-08-04T11:17:50.831Z,8.83
2018-08-04T11:20:18.300Z,16.80
2018-08-04T11:22:45.881Z,7.70
2018-08-04T11:25:16.028Z,7.97
2018-08-04T11:27:50.137Z,8.73
2018-08-04T11:30:20.812Z,10.57
2018-08-04T11:32:51.432Z,8.13
2018-08-04T11:35:18.333Z,7.53
2018-08-04T11:37:45.938Z,7.27
2018-08-04T11:40:12.917Z,11.33
2018-08-04T11:42:41.062Z,6.20
2018-08-04T11:45:08.188Z,6.93
2018-08-04T11:47:35.241Z,7.37
2018-08-04T11:50:04.175Z,7.60
2018-08-04T11:52:33.290Z,5.83
2018-08-04T11:55:00.518Z,6.30
2018-08-04T11:57:27.617Z,4.87
2018-08-04T11:59:55.559Z,5.07
2018-08-04T12:02:25.458Z,5.23
2018-08-04T12:04:57.696Z,7.53
2018-08-04T12:07:24.687Z,5.60
2018-08-04T12:09:55.371Z,9.80
2018-08-04T12:12:31.094Z,5.20
2018-08-04T12:14:58.084Z,5.97
2018-08-04T12:17:25.936Z,8.53
2018-08-04T12:19:54.950Z,6.73
2018-08-04T12:22:24.983Z,5.43
2018-08-04T12:24:55.919Z,6.90
2018-08-04T12:27:22.972Z,9.80
2018-08-04T12:29:51.028Z,4.67
2018-08-04T12:32:19.076Z,9.67
2018-08-04T12:34:47.333Z,6.87
2018-08-04T12:37:19.377Z,5.43
2018-08-04T12:39:46.872Z,7.03
2018-08-04T12:42:13.905Z,5.17
2018-08-04T12:44:41.939Z,6.00
2018-08-04T12:47:15.980Z,4.83
2018-08-04T12:49:44.045Z,5.30
2018-08-04T12:52:10.948Z,7.92
2018-08-04T12:54:39.900Z,7.07
2018-08-04T12:57:08.643Z,5.70
2018-08-04T12:59:37.483Z,6.03
2018-08-04T13:02:04.551Z,5.30
2018-08-04T13:04:32.520Z,6.70
2018-08-04T13:07:01.444Z,5.07
2018-08-04T13:09:34.447Z,4.60
2018-08-04T13:12:05.625Z,6.13
2018-08-04T13:14:34.635Z,5.10
2018-08-04T13:17:06.223Z,7.00
2018-08-04T13:19:34.272Z,5.10
2018-08-04T13:22:02.013Z,5.70
2018-08-04T13:24:34.199Z,8.23
2018-08-04T13:27:03.916Z,5.10
2018-08-04T13:29:30.870Z,4.90
2018-08-04T13:31:58.792Z,7.57
2018-08-04T13:34:25.767Z,8.13
2018-08-04T13:36:55.481Z,5.73
2018-08-04T13:39:23.508Z,5.67
2018-08-04T13:41:50.507Z,4.50
2018-08-04T13:44:17.484Z,11.57
2018-08-04T13:46:46.501Z,8.80
2018-08-04T13:49:13.596Z,7.80
2018-08-04T13:51:41.721Z,6.57
2018-08-04T13:54:09.591Z,10.60
2018-08-04T13:56:36.686Z,5.40
2018-08-04T13:59:03.827Z,5.07
2018-08-04T14:01:30.761Z,5.50
2018-08-04T14:03:58.254Z,5.73
2018-08-04T14:06:25.139Z,5.10
2018-08-04T14:08:52.153Z,5.63
2018-08-04T14:11:19.109Z,5.90
2018-08-04T14:13:46.159Z,5.93
2018-08-04T14:16:13.299Z,7.97
2018-08-04T14:18:40.476Z,10.83
2018-08-04T14:21:08.365Z,10.23
2018-08-04T14:23:37.296Z,10.83
2018-08-04T14:26:04.486Z,6.20
2018-08-04T14:28:31.872Z,6.00
2018-08-04T14:30:58.746Z,5.80
2018-08-04T14:33:26.515Z,7.27
2018-08-04T14:35:54.495Z,7.60
2018-08-04T14:38:21.468Z,10.37
2018-08-04T14:40:48.428Z,8.33
2018-08-04T14:43:15.478Z,6.43
2018-08-04T14:45:42.602Z,6.70
2018-08-04T14:48:09.736Z,8.17
2018-08-04T14:50:36.647Z,9.17
2018-08-04T14:53:03.697Z,7.90
2018-08-04T14:55:30.685Z,7.20
2018-08-04T14:57:58.535Z,6.50
2018-08-04T15:00:25.520Z,7.12
2018-08-04T15:02:52.473Z,5.85
2018-08-04T15:05:19.541Z,5.23
2018-08-04T15:07:46.664Z,5.40
2018-08-04T15:10:13.664Z,5.50
2018-08-04T15:12:40.700Z,5.50
2018-08-04T15:15:08.068Z,6.27
2018-08-04T15:17:35.042Z,7.67
2018-08-04T15:20:02.083Z,5.47
2018-08-04T15:22:29.070Z,5.20
2018-08-04T15:24:56.068Z,7.20
2018-08-04T15:27:23.101Z,6.20
2018-08-04T15:29:50.159Z,6.43
2018-08-04T15:32:17.156Z,5.50
2018-08-04T15:34:44.179Z,4.30
2018-08-04T15:37:11.151Z,5.20
2018-08-04T15:39:40.191Z,8.83
2018-08-04T15:42:08.059Z,7.80
2018-08-04T15:44:35.058Z,6.00
2018-08-04T15:47:02.032Z,5.30
2018-08-04T15:49:28.995Z,7.20
2018-08-04T15:51:55.941Z,7.50
2018-08-04T15:54:22.940Z,6.17
2018-08-04T15:56:50.050Z,5.27
2018-08-04T15:59:18.614Z,8.90
2018-08-04T16:01:45.683Z,5.93
2018-08-04T16:04:12.608Z,6.97
2018-08-04T16:06:40.626Z,5.80
2018-08-04T16:09:09.828Z,6.27
2018-08-04T16:11:37.080Z,7.37
2018-08-04T16:14:04.097Z,5.10
2018-08-04T16:16:31.023Z,5.23
2018-08-04T16:18:58.006Z,5.63
2018-08-04T16:21:24.980Z,5.90
2018-08-04T16:23:51.987Z,6.63
2018-08-04T16:26:19.615Z,5.40
2018-08-04T16:28:46.704Z,5.47
2018-08-04T16:31:13.702Z,5.40
2018-08-04T16:33:40.636Z,5.90
2018-08-04T16:36:07.592Z,9.80
2018-08-04T16:38:35.600Z,6.43
2018-08-04T16:41:02.563Z,6.90
2018-08-04T16:43:29.557Z,7.03
2018-08-04T16:45:56.599Z,5.43
2018-08-04T16:48:23.671Z,6.30
2018-08-04T16:50:51.789Z,5.50
2018-08-04T16:53:19.863Z,6.07
2018-08-04T16:55:47.927Z,7.33
2018-08-04T16:58:17.011Z,6.85
2018-08-04T17:00:44.603Z,11.90
2018-08-04T17:03:11.700Z,5.50
2018-08-04T17:05:38.715Z,6.80
2018-08-04T17:08:05.681Z,6.40
2018-08-04T17:10:32.759Z,6.50
2018-08-04T17:12:59.811Z,7.25
2018-08-04T17:15:26.900Z,7.40
2018-08-04T17:17:53.966Z,7.10
2018-08-04T17:20:21.027Z,6.03
2018-08-04T17:22:48.106Z,9.30
2018-08-04T17:25:16.625Z,5.20
2018-08-04T17:27:43.636Z,5.07
2018-08-04T17:30:10.529Z,6.63
2018-08-04T17:32:37.518Z,5.30
2018-08-04T17:35:04.738Z,6.17
2018-08-04T17:37:31.941Z,7.33
2018-08-04T17:39:58.827Z,5.23
2018-08-04T17:42:25.834Z,6.40
2018-08-04T17:44:52.818Z,6.00
2018-08-04T17:47:20.025Z,6.53
2018-08-04T17:49:46.971Z,6.03
2018-08-04T17:52:13.949Z,6.80
2018-08-04T17:54:40.928Z,6.77
2018-08-04T17:57:07.958Z,5.50
2018-08-04T17:59:34.831Z,8.23
2018-08-04T18:02:01.760Z,6.53
2018-08-04T18:04:28.781Z,5.77
2018-08-04T18:06:55.693Z,10.00
2018-08-04T18:09:22.688Z,6.20
2018-08-04T18:11:49.683Z,7.50
2018-08-04T18:14:18.792Z,7.33
2018-08-04T18:16:45.884Z,7.00
2018-08-04T18:19:12.819Z,5.50
2018-08-04T18:21:39.807Z,5.83
2018-08-04T18:24:06.731Z,6.17
2018-08-04T18:26:33.789Z,6.43
2018-08-04T18:29:00.821Z,9.40
2018-08-04T18:31:27.919Z,6.97
2018-08-04T18:33:54.976Z,6.90
2018-08-04T18:36:21.976Z,7.77
2018-08-04T18:38:48.949Z,7.00
2018-08-04T18:41:15.960Z,6.78
2018-08-04T18:43:43.145Z,8.00
2018-08-04T18:46:10.073Z,11.30
2018-08-04T18:48:37.063Z,6.80
2018-08-04T18:51:04.026Z,6.03
2018-08-04T18:53:30.987Z,10.17
2018-08-04T18:55:58.667Z,7.70
2018-08-04T18:58:25.667Z,12.60
2018-08-04T19:00:52.677Z,10.23
2018-08-04T19:03:19.708Z,5.63
2018-08-04T19:05:46.635Z,7.12
2018-08-04T19:08:13.603Z,11.43
2018-08-04T19:10:40.561Z,6.63
2018-08-04T19:13:08.544Z,11.10
2018-08-04T19:15:36.563Z,9.33
2018-08-04T19:18:03.487Z,10.00
2018-08-04T19:20:30.532Z,9.10
2018-08-04T19:22:57.774Z,6.03
2018-08-04T19:25:25.699Z,9.20
2018-08-04T19:27:52.686Z,9.30
2018-08-04T19:30:19.566Z,5.50
2018-08-04T19:32:46.551Z,7.60
2018-08-04T19:35:13.546Z,5.67
2018-08-04T19:37:40.471Z,14.43
2018-08-04T19:40:07.451Z,7.27
2018-08-04T19:42:35.247Z,8.40
2018-08-04T19:45:02.255Z,7.95
2018-08-04T19:47:29.295Z,5.43
2018-08-04T19:49:56.300Z,8.53
2018-08-04T19:52:25.567Z,12.83
2018-08-04T19:54:53.171Z,10.50
2018-08-04T19:57:20.199Z,7.97
2018-08-04T19:59:48.131Z,5.47
2018-08-04T20:02:19.696Z,12.23
2018-08-04T20:04:46.639Z,4.43
2018-08-04T20:07:13.586Z,7.20
2018-08-04T20:09:40.547Z,6.70
2018-08-04T20:12:07.582Z,4.70
2018-08-04T20:14:34.669Z,4.73
2018-08-04T20:17:02.722Z,3.93
2018-08-04T20:19:29.778Z,4.27
2018-08-04T20:21:57.740Z,4.20
2018-08-04T20:24:24.712Z,14.27
2018-08-04T20:26:51.703Z,5.07
2018-08-04T20:29:18.706Z,5.93
2018-08-04T20:31:45.620Z,4.70
2018-08-04T20:34:12.599Z,5.10
2018-08-04T20:36:39.563Z,4.78
2018-08-04T20:39:07.780Z,8.13
2018-08-04T20:41:35.767Z,4.30
2018-08-04T20:44:02.795Z,5.37
2018-08-04T20:46:35.774Z,4.73
2018-08-04T20:49:02.747Z,10.10
2018-08-04T20:51:29.769Z,8.63
2018-08-04T20:53:56.744Z,4.67
2018-08-04T20:56:24.724Z,4.33
2018-08-04T20:58:51.692Z,5.07
2018-08-04T21:01:34.693Z,3.50
2018-08-04T21:04:01.755Z,4.93
2018-08-04T21:06:29.660Z,5.67
2018-08-04T21:08:56.626Z,7.20
2018-08-04T21:11:23.589Z,6.47
2018-08-04T21:13:52.291Z,5.50
2018-08-04T21:16:19.288Z,3.90
2018-08-04T21:18:46.316Z,8.33
2018-08-04T21:21:13.399Z,4.00
2018-08-04T21:23:40.440Z,5.10
2018-08-04T21:26:07.380Z,8.67
2018-08-04T21:28:34.363Z,2.50
2018-08-04T21:31:01.276Z,3.00
2018-08-04T21:33:28.240Z,6.57
2018-08-04T21:35:55.769Z,2.40
2018-08-04T21:38:28.922Z,5.00
2018-08-04T21:40:57.721Z,5.87
2018-08-04T21:43:24.673Z,3.17
2018-08-04T21:45:52.668Z,3.53
2018-08-04T21:48:19.683Z,2.60
2018-08-04T21:50:47.407Z,2.60
2018-08-04T21:53:14.422Z,2.50
2018-08-04T21:55:41.701Z,3.80
2018-08-04T21:58:08.766Z,2.03
2018-08-04T22:00:55.327Z,2.93
2018-08-04T22:03:22.266Z,2.60
2018-08-04T22:05:49.265Z,3.63
2018-08-04T22:08:27.900Z,2.27
2018-08-04T22:10:55.299Z,2.37
2018-08-04T22:13:23.367Z,3.80
2018-08-04T22:15:50.368Z,2.60
2018-08-04T22:18:17.413Z,2.30
2018-08-04T22:20:44.467Z,3.00
2018-08-04T22:23:11.571Z,2.00
2018-08-04T22:25:38.487Z,4.50
2018-08-04T22:28:05.527Z,5.20
2018-08-04T22:30:32.575Z,2.97
2018-08-04T22:32:59.624Z,4.03
2018-08-04T22:35:26.622Z,4.60
2018-08-04T22:37:53.598Z,4.03
2018-08-04T22:40:21.124Z,2.73
2018-08-04T22:42:48.100Z,3.00
2018-08-04T22:45:44.389Z,2.20
2018-08-04T22:48:11.323Z,2.40
2018-08-04T22:50:38.288Z,2.43
2018-08-04T22:53:05.214Z,2.23
2018-08-04T22:55:33.199Z,5.83
2018-08-04T22:58:00.155Z,2.50
2018-08-04T23:00:27.150Z,2.67
2018-08-04T23:02:54.067Z,2.00
2018-08-04T23:05:21.035Z,2.30
2018-08-04T23:07:47.984Z,2.87
2018-08-04T23:10:15.003Z,2.80
2018-08-04T23:12:42.043Z,5.37
2018-08-04T23:15:08.987Z,3.33
2018-08-04T23:17:35.930Z,3.00
2018-08-04T23:20:02.916Z,3.67
2018-08-04T23:22:29.857Z,5.40
2018-08-04T23:24:56.786Z,3.23
2018-08-04T23:27:23.891Z,2.57
2018-08-04T23:29:50.867Z,5.40
2018-08-04T23:32:17.798Z,2.47
2018-08-04T23:34:44.759Z,2.97
2018-08-04T23:37:11.767Z,2.20
2018-08-04T23:39:38.793Z,2.47
2018-08-04T23:42:05.942Z,4.03
2018-08-04T23:44:32.859Z,4.30
2018-08-04T23:46:59.847Z,3.50
2018-08-04T23:49:26.776Z,1.80
2018-08-04T23:51:53.727Z,2.57
2018-08-04T23:54:20.689Z,3.40
2018-08-04T23:56:47.686Z,10.47
2018-08-04T23:59:14.639Z,3.27
